Time;durP1;ratioP1;P1;durP2;ratioP2;P2;SDS_P1;SDS_P2;PMS_P1;PMS_P2;Temp;Humidity;BMP_temperature;BMP_pressure;BME280_temperature;BME280_humidity;BME280_pressure;Samples;Min_cycle;Max_cycle;Signal;HPM_P1;HPM_P2
2023/03/27 00:00:27;;;;;;;0.80;0.80;;;;;;;;;;5048902;28;20286;-55
2023/03/27 00:02:53;;;;;;;0.93;0.80;;;;;;;;;;5039490;28;20254;-55
2023/03/27 00:05:20;;;;;;;0.80;0.80;;;;;;;;;;5037380;28;20585;-54
2023/03/27 00:07:48;;;;;;;0.90;0.90;;;;;;;;;;5035801;28;20184;-54
2023/03/27 00:10:14;;;;;;;1.10;1.10;;;;;;;;;;5050395;28;20244;-54
2023/03/27 00:12:42;;;;;;;1.00;1.00;;;;;;;;;;5038506;28;20188;-54
2023/03/27 00:15:14;;;;;;;1.05;0.82;;;;;;;;;;5034134;28;20168;-54
2023/03/27 00:17:40;;;;;;;0.80;0.80;;;;;;;;;;5033798;28;20179;-54
2023/03/27 00:20:06;;;;;;;1.10;0.90;;;;;;;;;;5047972;28;20179;-53
2023/03/27 00:22:32;;;;;;;1.00;1.00;;;;;;;;;;5047423;28;20186;-55
2023/03/27 00:24:58;;;;;;;0.85;0.85;;;;;;;;;;5036238;28;20192;-54
2023/03/27 00:27:24;;;;;;;1.15;1.00;;;;;;;;;;5040678;28;20175;-54
2023/03/27 00:29:52;;;;;;;0.93;0.93;;;;;;;;;;5046121;28;20236;-54
2023/03/27 00:32:18;;;;;;;0.90;0.90;;;;;;;;;;5047232;28;20331;-54
2023/03/27 00:34:44;;;;;;;0.73;0.73;;;;;;;;;;5044871;28;20627;-54
2023/03/27 00:37:10;;;;;;;0.95;0.90;;;;;;;;;;5044983;28;20195;-54
2023/03/27 00:39:36;;;;;;;1.30;1.08;;;;;;;;;;5042713;28;20191;-54
2023/03/27 00:42:02;;;;;;;1.20;1.10;;;;;;;;;;5036242;28;20211;-54
2023/03/27 00:44:33;;;;;;;0.98;0.98;;;;;;;;;;5030845;28;20188;-54
2023/03/27 00:47:01;;;;;;;1.40;1.00;;;;;;;;;;5037664;28;20184;-55
2023/03/27 00:49:28;;;;;;;1.25;1.08;;;;;;;;;;5035494;28;20182;-55
2023/03/27 00:51:56;;;;;;;1.05;0.90;;;;;;;;;;5038358;28;20192;-55
2023/03/27 00:54:25;;;;;;;0.80;0.80;;;;;;;;;;5044097;28;20186;-55
2023/03/27 00:56:54;;;;;;;1.10;1.00;;;;;;;;;;5031256;28;20183;-55
2023/03/27 00:59:20;;;;;;;1.75;1.10;;;;;;;;;;5026810;28;20199;-54
2023/03/27 01:01:46;;;;;;;1.02;0.93;;;;;;;;;;5035300;28;20204;-55
2023/03/27 01:04:12;;;;;;;1.13;0.80;;;;;;;;;;5044079;28;20199;-55
2023/03/27 01:06:40;;;;;;;0.70;0.70;;;;;;;;;;5045333;28;20254;-56
2023/03/27 01:09:08;;;;;;;2.92;0.82;;;;;;;;;;5031118;28;20176;-55
2023/03/27 01:11:51;;;;;;;1.15;0.90;;;;;;;;;;5050735;28;20192;-55
2023/03/27 01:14:29;;;;;;;0.98;0.80;;;;;;;;;;5032146;28;20176;-55
2023/03/27 01:17:05;;;;;;;0.70;0.60;;;;;;;;;;5041466;28;20195;-55
2023/03/27 01:19:44;;;;;;;0.82;0.68;;;;;;;;;;5041655;28;20184;-55
2023/03/27 01:22:29;;;;;;;0.90;0.60;;;;;;;;;;5037023;28;20695;-55
2023/03/27 01:24:55;;;;;;;0.60;0.60;;;;;;;;;;5049748;28;20193;-55
2023/03/27 01:27:36;;;;;;;0.98;0.68;;;;;;;;;;5040127;28;20446;-54
2023/03/27 01:30:17;;;;;;;0.70;0.68;;;;;;;;;;5046116;28;20186;-54
2023/03/27 01:32:55;;;;;;;1.10;1.00;;;;;;;;;;5039336;28;20182;-54
2023/03/27 01:35:41;;;;;;;2.15;0.80;;;;;;;;;;5026279;28;20207;-54
2023/03/27 01:38:27;;;;;;;0.60;0.60;;;;;;;;;;5035544;28;20184;-54
2023/03/27 01:41:09;;;;;;;1.70;1.00;;;;;;;;;;5052793;28;20183;-54
2023/03/27 01:43:39;;;;;;;1.63;0.82;;;;;;;;;;5036438;28;20175;-54
2023/03/27 01:46:11;;;;;;;2.42;0.80;;;;;;;;;;5032783;28;20433;-54
2023/03/27 01:48:46;;;;;;;2.40;1.13;;;;;;;;;;5038130;28;20579;-54
2023/03/27 01:51:21;;;;;;;3.03;1.13;;;;;;;;;;5041057;28;20213;-54
2023/03/27 01:53:55;;;;;;;2.97;0.85;;;;;;;;;;5033845;28;20187;-54
2023/03/27 01:56:26;;;;;;;3.78;0.90;;;;;;;;;;5039379;28;20184;-54
2023/03/27 01:58:58;;;;;;;1.63;0.85;;;;;;;;;;5030372;28;20226;-54
2023/03/27 02:01:27;;;;;;;2.30;0.90;;;;;;;;;;5024754;28;20206;-54
2023/03/27 02:03:56;;;;;;;1.10;1.00;;;;;;;;;;5044106;28;20238;-54
2023/03/27 02:06:36;;;;;;;2.22;0.77;;;;;;;;;;5032650;28;20175;-54
2023/03/27 02:09:07;;;;;;;1.08;0.80;;;;;;;;;;5036643;28;20601;-54
2023/03/27 02:11:40;;;;;;;1.77;1.05;;;;;;;;;;5043201;28;20206;-54
2023/03/27 02:14:10;;;;;;;1.05;0.70;;;;;;;;;;5035992;28;20652;-54
2023/03/27 02:16:41;;;;;;;1.38;0.80;;;;;;;;;;5038031;28;20219;-54
2023/03/27 02:19:12;;;;;;;1.50;1.02;;;;;;;;;;5041298;28;20562;-55
2023/03/27 02:21:37;;;;;;;1.98;0.90;;;;;;;;;;5047758;28;20226;-55
2023/03/27 02:24:04;;;;;;;1.40;1.00;;;;;;;;;;5042460;28;20226;-55
2023/03/27 02:26:32;;;;;;;2.28;1.02;;;;;;;;;;5046850;28;20270;-55
2023/03/27 02:29:16;;;;;;;2.28;0.90;;;;;;;;;;5033478;28;20197;-55
2023/03/27 02:31:57;;;;;;;3.38;1.30;;;;;;;;;;5040844;28;21035;-56
2023/03/27 02:34:32;;;;;;;4.00;0.93;;;;;;;;;;5040601;28;20269;-56
2023/03/27 02:37:03;;;;;;;2.55;1.20;;;;;;;;;;5039255;28;20206;-56
2023/03/27 02:39:32;;;;;;;2.80;1.42;;;;;;;;;;5036101;28;20190;-57
2023/03/27 02:42:01;;;;;;;1.92;1.02;;;;;;;;;;5038815;28;20213;-57
2023/03/27 02:44:31;;;;;;;2.72;0.95;;;;;;;;;;5033561;28;20195;-58
2023/03/27 02:47:03;;;;;;;2.30;1.02;;;;;;;;;;5030247;28;20179;-58
2023/03/27 02:49:32;;;;;;;1.30;0.88;;;;;;;;;;5041442;28;20179;-58
2023/03/27 02:52:05;;;;;;;2.67;1.20;;;;;;;;;;5032258;28;20224;-58
2023/03/27 02:54:34;;;;;;;3.47;1.05;;;;;;;;;;5040031;28;20172;-58
2023/03/27 02:57:03;;;;;;;2.33;1.20;;;;;;;;;;5036940;28;20190;-58
2023/03/27 02:59:34;;;;;;;2.25;1.13;;;;;;;;;;5039628;28;20184;-58
2023/03/27 03:02:01;;;;;;;2.35;1.30;;;;;;;;;;5033053;28;20253;-58
2023/03/27 03:04:30;;;;;;;2.35;1.38;;;;;;;;;;5040773;28;20171;-58
2023/03/27 03:06:57;;;;;;;1.42;1.05;;;;;;;;;;5048664;28;20563;-58
2023/03/27 03:09:23;;;;;;;1.70;1.20;;;;;;;;;;5046095;28;20174;-58
2023/03/27 03:11:51;;;;;;;2.50;1.08;;;;;;;;;;5046654;28;20287;-58
2023/03/27 03:14:20;;;;;;;3.28;1.10;;;;;;;;;;5043480;28;20201;-59
2023/03/27 03:16:46;;;;;;;1.63;1.10;;;;;;;;;;5047856;28;20538;-58
2023/03/27 03:19:12;;;;;;;2.55;1.17;;;;;;;;;;5039035;28;20279;-58
2023/03/27 03:21:38;;;;;;;2.67;1.27;;;;;;;;;;5047256;28;20195;-58
2023/03/27 03:24:05;;;;;;;1.02;0.90;;;;;;;;;;5030979;28;20180;-60
2023/03/27 03:26:31;;;;;;;1.35;0.80;;;;;;;;;;5050390;28;20529;-59
2023/03/27 03:28:57;;;;;;;1.88;0.98;;;;;;;;;;5035115;28;20196;-58
2023/03/27 03:31:23;;;;;;;2.47;1.20;;;;;;;;;;5048366;28;20202;-58
2023/03/27 03:33:50;;;;;;;1.13;0.90;;;;;;;;;;5042314;28;20198;-59
2023/03/27 03:36:15;;;;;;;1.52;0.80;;;;;;;;;;5041873;28;20198;-58
2023/03/27 03:38:42;;;;;;;1.92;1.00;;;;;;;;;;5042456;28;20171;-58
2023/03/27 03:41:08;;;;;;;3.28;1.13;;;;;;;;;;5049155;28;20583;-58
2023/03/27 03:43:34;;;;;;;1.85;0.98;;;;;;;;;;5045378;28;20179;-58
2023/03/27 03:45:59;;;;;;;0.75;0.75;;;;;;;;;;5040693;28;20274;-58
2023/03/27 03:48:26;;;;;;;2.13;1.00;;;;;;;;;;5046678;28;20179;-53
2023/03/27 03:50:52;;;;;;;4.70;1.33;;;;;;;;;;5042687;28;20183;-53
2023/03/27 03:53:19;;;;;;;1.92;1.25;;;;;;;;;;5037549;28;20192;-53
2023/03/27 03:55:46;;;;;;;4.05;1.38;;;;;;;;;;5045038;28;20179;-54
2023/03/27 03:58:12;;;;;;;3.92;1.30;;;;;;;;;;5039884;28;20190;-54
2023/03/27 04:00:39;;;;;;;3.47;1.23;;;;;;;;;;5046728;28;20211;-53
2023/03/27 04:03:06;;;;;;;4.38;1.70;;;;;;;;;;5045420;28;20553;-53
2023/03/27 04:05:32;;;;;;;4.35;1.05;;;;;;;;;;5039636;28;20167;-53
2023/03/27 04:07:58;;;;;;;3.75;1.50;;;;;;;;;;5036315;28;20491;-53
2023/03/27 04:10:28;;;;;;;4.53;1.33;;;;;;;;;;5030231;28;20195;-53
2023/03/27 04:12:54;;;;;;;2.10;1.13;;;;;;;;;;5054694;28;20677;-53
2023/03/27 04:15:20;;;;;;;3.67;1.23;;;;;;;;;;5034421;28;20597;-54
2023/03/27 04:17:49;;;;;;;4.45;1.33;;;;;;;;;;5044565;28;20551;-53
2023/03/27 04:20:16;;;;;;;4.50;1.25;;;;;;;;;;5037214;28;20192;-54
2023/03/27 04:22:46;;;;;;;2.72;1.15;;;;;;;;;;5039241;28;20191;-53
2023/03/27 04:25:13;;;;;;;3.70;1.33;;;;;;;;;;5022379;28;20192;-53
2023/03/27 04:27:39;;;;;;;5.53;1.30;;;;;;;;;;5041494;28;20189;-53
2023/03/27 04:30:07;;;;;;;4.43;1.48;;;;;;;;;;5030633;28;20559;-53
2023/03/27 04:32:33;;;;;;;3.33;1.20;;;;;;;;;;5053534;28;20167;-53
2023/03/27 04:34:59;;;;;;;5.55;1.35;;;;;;;;;;5034773;28;20242;-54
2023/03/27 04:37:25;;;;;;;4.05;1.50;;;;;;;;;;5040604;28;20198;-53
2023/03/27 04:39:51;;;;;;;2.97;1.10;;;;;;;;;;5041679;28;20191;-53
2023/03/27 04:42:21;;;;;;;4.72;1.50;;;;;;;;;;5041356;28;20207;-53
2023/03/27 04:44:47;;;;;;;3.17;1.60;;;;;;;;;;5045620;28;20464;-53
2023/03/27 04:47:13;;;;;;;4.50;1.30;;;;;;;;;;5044324;28;20183;-53
2023/03/27 04:49:41;;;;;;;3.47;1.55;;;;;;;;;;5046751;28;20180;-53
2023/03/27 04:52:07;;;;;;;4.13;1.20;;;;;;;;;;5038556;28;20570;-53
2023/03/27 04:54:33;;;;;;;3.83;1.70;;;;;;;;;;5035856;28;20180;-53
2023/03/27 04:57:02;;;;;;;4.40;1.52;;;;;;;;;;5030641;28;20191;-53
2023/03/27 04:59:32;;;;;;;2.47;0.95;;;;;;;;;;5029251;28;20791;-53
2023/03/27 05:01:58;;;;;;;3.45;1.25;;;;;;;;;;5037035;28;20227;-53
2023/03/27 05:04:25;;;;;;;1.73;1.00;;;;;;;;;;5043847;28;20171;-53
2023/03/27 05:06:52;;;;;;;3.40;1.52;;;;;;;;;;5043974;28;20461;-53
2023/03/27 05:09:18;;;;;;;2.67;1.20;;;;;;;;;;5047645;28;20181;-52
2023/03/27 05:11:48;;;;;;;3.70;1.27;;;;;;;;;;5040696;28;20200;-52
2023/03/27 05:14:15;;;;;;;3.00;1.40;;;;;;;;;;5051886;28;20529;-52
2023/03/27 05:16:41;;;;;;;6.57;1.27;;;;;;;;;;5042875;28;20606;-53
2023/03/27 05:19:07;;;;;;;1.92;1.13;;;;;;;;;;5045846;28;20180;-53
2023/03/27 05:21:33;;;;;;;2.05;1.20;;;;;;;;;;5045644;28;20570;-53
2023/03/27 05:23:59;;;;;;;1.60;1.13;;;;;;;;;;5046083;28;20175;-53
2023/03/27 05:26:25;;;;;;;2.00;1.13;;;;;;;;;;5036763;28;20236;-53
2023/03/27 05:28:53;;;;;;;2.38;1.33;;;;;;;;;;5041632;28;20607;-53
2023/03/27 05:31:19;;;;;;;2.25;1.35;;;;;;;;;;5039469;28;20214;-53
2023/03/27 05:33:45;;;;;;;3.60;1.30;;;;;;;;;;5042277;28;20424;-53
2023/03/27 05:36:11;;;;;;;2.58;1.10;;;;;;;;;;5042458;28;20616;-53
2023/03/27 05:38:38;;;;;;;2.55;1.33;;;;;;;;;;5034728;28;20233;-53
2023/03/27 05:41:05;;;;;;;2.80;1.20;;;;;;;;;;5046608;28;20294;-53
2023/03/27 05:43:32;;;;;;;1.77;1.10;;;;;;;;;;5041963;28;20207;-53
2023/03/27 05:45:58;;;;;;;1.80;1.10;;;;;;;;;;5035330;28;20179;-53
2023/03/27 05:48:24;;;;;;;2.38;1.05;;;;;;;;;;5035303;28;20193;-53
2023/03/27 05:50:50;;;;;;;3.28;1.10;;;;;;;;;;5045650;28;20198;-53
2023/03/27 05:53:15;;;;;;;3.42;1.00;;;;;;;;;;5045173;28;20553;-53
2023/03/27 05:55:41;;;;;;;4.88;1.30;;;;;;;;;;5041808;28;20187;-53
2023/03/27 05:58:10;;;;;;;2.30;1.10;;;;;;;;;;5032949;28;20195;-53
2023/03/27 06:00:37;;;;;;;2.75;1.13;;;;;;;;;;5036960;28;20221;-54
2023/03/27 06:03:03;;;;;;;2.97;1.10;;;;;;;;;;5051301;28;20248;-53
2023/03/27 06:05:31;;;;;;;1.92;0.90;;;;;;;;;;5041660;28;20175;-54
2023/03/27 06:07:57;;;;;;;3.20;1.23;;;;;;;;;;5045905;28;20193;-53
2023/03/27 06:10:24;;;;;;;2.17;1.13;;;;;;;;;;5040767;28;20214;-53
2023/03/27 06:12:57;;;;;;;2.58;1.00;;;;;;;;;;5041313;28;20190;-53
2023/03/27 06:15:24;;;;;;;2.60;1.30;;;;;;;;;;5031951;28;21953;-53
2023/03/27 06:17:50;;;;;;;2.95;1.20;;;;;;;;;;5036643;28;20531;-53
2023/03/27 06:20:18;;;;;;;3.10;1.65;;;;;;;;;;5045307;28;20214;-53
2023/03/27 06:22:46;;;;;;;2.72;1.00;;;;;;;;;;5045243;28;20195;-53
2023/03/27 06:25:13;;;;;;;3.97;1.00;;;;;;;;;;5043283;28;20260;-53
2023/03/27 06:27:41;;;;;;;2.67;1.23;;;;;;;;;;5039723;28;20178;-53
2023/03/27 06:30:08;;;;;;;1.88;1.13;;;;;;;;;;5035793;28;20278;-53
2023/03/27 06:32:35;;;;;;;1.85;1.20;;;;;;;;;;5041221;28;20549;-53
2023/03/27 06:35:01;;;;;;;1.60;1.10;;;;;;;;;;5040390;28;20229;-53
2023/03/27 06:37:27;;;;;;;2.05;1.10;;;;;;;;;;5039141;28;20236;-52
2023/03/27 06:39:53;;;;;;;0.85;0.80;;;;;;;;;;5042723;28;20184;-52
2023/03/27 06:42:19;;;;;;;2.38;1.05;;;;;;;;;;5034414;28;20203;-52
2023/03/27 06:44:45;;;;;;;0.80;0.80;;;;;;;;;;5038894;28;20206;-52
2023/03/27 06:47:11;;;;;;;2.83;0.95;;;;;;;;;;5040666;28;20257;-52
2023/03/27 06:49:37;;;;;;;1.48;1.10;;;;;;;;;;5044668;28;20186;-52
2023/03/27 06:52:03;;;;;;;2.17;1.00;;;;;;;;;;5040032;28;20199;-52
2023/03/27 06:54:29;;;;;;;2.70;1.00;;;;;;;;;;5053210;28;20183;-51
2023/03/27 06:56:55;;;;;;;2.60;1.15;;;;;;;;;;5039500;28;20186;-51
2023/03/27 06:59:21;;;;;;;1.55;1.08;;;;;;;;;;5043510;28;20182;-51
2023/03/27 07:01:47;;;;;;;2.03;1.23;;;;;;;;;;5037047;28;20219;-51
2023/03/27 07:04:13;;;;;;;1.33;1.20;;;;;;;;;;5033695;28;20252;-51
2023/03/27 07:06:39;;;;;;;4.20;1.10;;;;;;;;;;5036269;28;20175;-51
2023/03/27 07:09:06;;;;;;;1.95;1.00;;;;;;;;;;5045027;28;20180;-51
2023/03/27 07:11:32;;;;;;;2.53;1.25;;;;;;;;;;5043077;28;20200;-51
2023/03/27 07:13:58;;;;;;;1.00;0.80;;;;;;;;;;5038315;28;20203;-51
2023/03/27 07:16:24;;;;;;;3.85;1.25;;;;;;;;;;5040219;28;20226;-51
2023/03/27 07:18:50;;;;;;;1.45;1.02;;;;;;;;;;5035949;28;20222;-51
2023/03/27 07:21:16;;;;;;;1.05;0.98;;;;;;;;;;5041793;28;20531;-51
2023/03/27 07:23:42;;;;;;;2.50;1.10;;;;;;;;;;5050311;28;20179;-51
2023/03/27 07:26:08;;;;;;;1.17;1.08;;;;;;;;;;5044475;28;20435;-51
2023/03/27 07:28:37;;;;;;;1.13;0.98;;;;;;;;;;5042206;28;20496;-51
2023/03/27 07:31:06;;;;;;;2.08;1.02;;;;;;;;;;5032692;28;20191;-51
2023/03/27 07:33:32;;;;;;;1.05;0.90;;;;;;;;;;5044413;28;20192;-51
2023/03/27 07:35:58;;;;;;;1.63;1.10;;;;;;;;;;5051557;28;20198;-51
2023/03/27 07:38:24;;;;;;;2.15;0.90;;;;;;;;;;5040015;28;20543;-51
2023/03/27 07:40:50;;;;;;;1.95;1.13;;;;;;;;;;5038554;28;20208;-51
2023/03/27 07:43:16;;;;;;;1.85;0.98;;;;;;;;;;5035439;28;20455;-51
2023/03/27 07:45:41;;;;;;;2.20;1.23;;;;;;;;;;5040810;28;20186;-51
2023/03/27 07:48:13;;;;;;;1.52;0.90;;;;;;;;;;5045248;28;20215;-51
2023/03/27 07:50:39;;;;;;;1.38;1.17;;;;;;;;;;5046100;28;20216;-51
2023/03/27 07:53:05;;;;;;;1.90;1.02;;;;;;;;;;5042666;28;20274;-51
2023/03/27 07:55:31;;;;;;;1.08;0.98;;;;;;;;;;5035616;28;20188;-51
2023/03/27 07:57:57;;;;;;;2.53;1.00;;;;;;;;;;5039291;28;20184;-51
2023/03/27 08:00:23;;;;;;;1.42;1.00;;;;;;;;;;5033908;28;20187;-51
2023/03/27 08:02:49;;;;;;;2.80;1.13;;;;;;;;;;5026790;28;20211;-51
2023/03/27 08:05:16;;;;;;;1.38;0.73;;;;;;;;;;5034603;28;20177;-51
2023/03/27 08:07:44;;;;;;;1.20;1.10;;;;;;;;;;5037079;28;20176;-51
2023/03/27 08:10:10;;;;;;;1.05;1.00;;;;;;;;;;5040975;28;20210;-51
2023/03/27 08:12:36;;;;;;;0.90;0.90;;;;;;;;;;5045415;28;20187;-51
2023/03/27 08:15:03;;;;;;;0.80;0.80;;;;;;;;;;5036681;28;20507;-51
2023/03/27 08:17:30;;;;;;;1.25;1.00;;;;;;;;;;5035292;28;20186;-51
2023/03/27 08:19:56;;;;;;;1.17;1.15;;;;;;;;;;5036297;28;20184;-51
2023/03/27 08:22:23;;;;;;;0.85;0.68;;;;;;;;;;5035964;28;20486;-51
2023/03/27 08:24:49;;;;;;;1.55;0.90;;;;;;;;;;5036490;28;20179;-51
2023/03/27 08:27:16;;;;;;;1.85;0.90;;;;;;;;;;5036030;28;20188;-51
2023/03/27 08:29:42;;;;;;;0.93;0.82;;;;;;;;;;5035041;28;20184;-51
2023/03/27 08:32:09;;;;;;;1.23;0.90;;;;;;;;;;5035923;28;20295;-51
2023/03/27 08:34:36;;;;;;;1.10;1.00;;;;;;;;;;5036109;28;20228;-51
2023/03/27 08:37:02;;;;;;;1.35;0.90;;;;;;;;;;5035849;28;20230;-51
2023/03/27 08:39:32;;;;;;;1.40;1.05;;;;;;;;;;5039865;28;20550;-51
2023/03/27 08:41:59;;;;;;;1.30;0.80;;;;;;;;;;5055368;28;20198;-51
2023/03/27 08:44:26;;;;;;;1.88;1.17;;;;;;;;;;5056217;28;20558;-51
2023/03/27 08:46:55;;;;;;;1.77;0.90;;;;;;;;;;5041975;28;20184;-51
2023/03/27 08:49:22;;;;;;;1.25;0.80;;;;;;;;;;5053334;28;20179;-51
2023/03/27 08:51:57;;;;;;;1.00;0.70;;;;;;;;;;5028185;28;20219;-50
2023/03/27 08:54:28;;;;;;;1.10;0.90;;;;;;;;;;5029767;28;20184;-51
2023/03/27 08:56:54;;;;;;;1.23;0.90;;;;;;;;;;5034514;28;20585;-51
2023/03/27 08:59:22;;;;;;;1.25;0.93;;;;;;;;;;5035251;28;20413;-51
2023/03/27 09:01:58;;;;;;;1.63;0.95;;;;;;;;;;5025933;28;20234;-51
2023/03/27 09:04:40;;;;;;;1.05;0.55;;;;;;;;;;5033747;28;20180;-51
2023/03/27 09:07:05;;;;;;;1.08;0.90;;;;;;;;;;5031499;28;20179;-51
2023/03/27 09:09:31;;;;;;;0.93;0.88;;;;;;;;;;5039373;28;20240;-51
2023/03/27 09:12:08;;;;;;;0.95;0.80;;;;;;;;;;5038820;28;20211;-51
2023/03/27 09:14:42;;;;;;;1.00;0.90;;;;;;;;;;5046096;28;20223;-51
2023/03/27 09:17:27;;;;;;;1.25;0.88;;;;;;;;;;5036303;28;20505;-51
2023/03/27 09:19:56;;;;;;;0.95;0.85;;;;;;;;;;5033650;28;20456;-51
2023/03/27 09:22:25;;;;;;;1.45;0.70;;;;;;;;;;5032791;28;20212;-51
2023/03/27 09:24:53;;;;;;;1.30;0.82;;;;;;;;;;5037310;28;20489;-51
2023/03/27 09:27:21;;;;;;;1.00;0.90;;;;;;;;;;5039298;28;20200;-51
2023/03/27 09:29:53;;;;;;;1.13;0.73;;;;;;;;;;5034080;28;20469;-51
2023/03/27 09:32:19;;;;;;;0.85;0.70;;;;;;;;;;5038929;28;20271;-51
2023/03/27 09:34:46;;;;;;;0.70;0.70;;;;;;;;;;5038448;28;20254;-51
2023/03/27 09:37:15;;;;;;;0.70;0.70;;;;;;;;;;5042282;28;20202;-51
2023/03/27 09:39:45;;;;;;;1.00;0.65;;;;;;;;;;5046557;28;20225;-51
2023/03/27 09:42:16;;;;;;;0.70;0.70;;;;;;;;;;5044640;28;20245;-51
2023/03/27 09:44:42;;;;;;;0.90;0.80;;;;;;;;;;5042335;28;20188;-51
2023/03/27 09:47:21;;;;;;;0.88;0.85;;;;;;;;;;5043807;28;20210;-51
2023/03/27 09:49:53;;;;;;;1.05;0.65;;;;;;;;;;5035892;28;20219;-51
2023/03/27 09:52:32;;;;;;;0.70;0.70;;;;;;;;;;5025921;28;20493;-51
2023/03/27 09:54:58;;;;;;;1.10;0.60;;;;;;;;;;5038534;28;20562;-51
2023/03/27 09:57:31;;;;;;;0.95;0.73;;;;;;;;;;5037579;28;20198;-51
2023/03/27 09:59:59;;;;;;;0.80;0.70;;;;;;;;;;5039210;28;20183;-51
2023/03/27 10:02:30;;;;;;;0.98;0.77;;;;;;;;;;5022363;28;20240;-51
2023/03/27 10:05:12;;;;;;;0.68;0.68;;;;;;;;;;5043084;28;20171;-51
2023/03/27 10:07:39;;;;;;;0.60;0.60;;;;;;;;;;5042313;28;20232;-51
2023/03/27 10:10:07;;;;;;;1.48;0.70;;;;;;;;;;5040332;28;20291;-51
2023/03/27 10:12:34;;;;;;;0.60;0.60;;;;;;;;;;5041175;28;20195;-51
2023/03/27 10:15:00;;;;;;;1.20;0.82;;;;;;;;;;5044922;28;20179;-51
2023/03/27 10:17:29;;;;;;;1.25;0.70;;;;;;;;;;5037653;28;20274;-51
2023/03/27 10:20:09;;;;;;;0.60;0.57;;;;;;;;;;5044062;28;20202;-50
2023/03/27 10:22:37;;;;;;;0.90;0.80;;;;;;;;;;5038086;28;20604;-51
2023/03/27 10:25:06;;;;;;;1.23;0.75;;;;;;;;;;5041763;28;20981;-50
2023/03/27 10:27:33;;;;;;;0.80;0.60;;;;;;;;;;5038072;28;20199;-51
2023/03/27 10:30:00;;;;;;;0.80;0.80;;;;;;;;;;5034652;28;20183;-51
2023/03/27 10:32:42;;;;;;;0.80;0.60;;;;;;;;;;5034474;28;20204;-50
2023/03/27 10:35:21;;;;;;;0.60;0.60;;;;;;;;;;5041184;28;20190;-51
2023/03/27 10:37:47;;;;;;;0.60;0.60;;;;;;;;;;5025416;28;20193;-51
2023/03/27 10:40:21;;;;;;;0.68;0.68;;;;;;;;;;5037609;28;20577;-51
2023/03/27 10:42:48;;;;;;;1.38;0.60;;;;;;;;;;5037967;28;20226;-51
2023/03/27 10:45:19;;;;;;;0.55;0.55;;;;;;;;;;5039368;28;20198;-51
2023/03/27 10:47:47;;;;;;;1.05;0.63;;;;;;;;;;5041874;28;20191;-51
2023/03/27 10:50:13;;;;;;;0.75;0.50;;;;;;;;;;5037213;28;20203;-51
2023/03/27 10:52:45;;;;;;;0.75;0.60;;;;;;;;;;5039469;28;20479;-51
2023/03/27 10:55:40;;;;;;;0.65;0.60;;;;;;;;;;5038389;28;20251;-51
2023/03/27 10:58:14;;;;;;;0.60;0.40;;;;;;;;;;5042817;28;20202;-51
2023/03/27 11:00:46;;;;;;;1.25;0.70;;;;;;;;;;5042873;28;20191;-51
2023/03/27 11:03:21;;;;;;;0.47;0.47;;;;;;;;;;5045707;28;20241;-50
2023/03/27 11:05:52;;;;;;;0.60;0.60;;;;;;;;;;5037949;28;20179;-50
2023/03/27 11:08:21;;;;;;;0.50;0.50;;;;;;;;;;5042038;28;20172;-51
2023/03/27 11:10:48;;;;;;;0.95;0.70;;;;;;;;;;5037197;28;20729;-50
2023/03/27 11:13:25;;;;;;;1.30;0.75;;;;;;;;;;5042821;28;20443;-51
2023/03/27 11:15:53;;;;;;;1.08;0.98;;;;;;;;;;5039821;28;20236;-50
2023/03/27 11:18:25;;;;;;;1.40;0.60;;;;;;;;;;5041850;28;20207;-51
2023/03/27 11:20:59;;;;;;;0.85;0.43;;;;;;;;;;5040482;28;20214;-51
2023/03/27 11:23:32;;;;;;;0.90;0.50;;;;;;;;;;5042762;28;20179;-51
2023/03/27 11:25:59;;;;;;;0.57;0.57;;;;;;;;;;5037045;28;20214;-51
2023/03/27 11:28:32;;;;;;;0.50;0.50;;;;;;;;;;5046749;28;20260;-51
2023/03/27 11:31:02;;;;;;;0.82;0.52;;;;;;;;;;5032478;28;20187;-51
2023/03/27 11:33:34;;;;;;;0.90;0.50;;;;;;;;;;5048582;28;20179;-51
2023/03/27 11:36:18;;;;;;;0.93;0.50;;;;;;;;;;5057046;28;20209;-51
2023/03/27 11:38:50;;;;;;;0.85;0.70;;;;;;;;;;5057381;28;20205;-51
2023/03/27 11:41:16;;;;;;;0.90;0.70;;;;;;;;;;5057274;28;20207;-51
2023/03/27 11:43:42;;;;;;;0.85;0.65;;;;;;;;;;5057240;28;20202;-51
2023/03/27 11:46:27;;;;;;;0.75;0.65;;;;;;;;;;5044216;28;20234;-51
2023/03/27 11:49:02;;;;;;;0.82;0.70;;;;;;;;;;5036778;28;20191;-51
2023/03/27 11:51:37;;;;;;;1.08;0.52;;;;;;;;;;5037373;28;20191;-51
2023/03/27 11:54:22;;;;;;;0.85;0.50;;;;;;;;;;5036875;28;20229;-51
2023/03/27 11:56:55;;;;;;;0.63;0.60;;;;;;;;;;5036413;28;20191;-51
2023/03/27 11:59:30;;;;;;;0.40;0.40;;;;;;;;;;5036426;28;20184;-51
2023/03/27 12:01:58;;;;;;;0.88;0.82;;;;;;;;;;5035995;28;20209;-51
2023/03/27 12:04:37;;;;;;;0.60;0.60;;;;;;;;;;5036732;28;20194;-51
2023/03/27 12:07:19;;;;;;;0.60;0.60;;;;;;;;;;5036540;28;20177;-51
2023/03/27 12:10:03;;;;;;;0.82;0.52;;;;;;;;;;5040146;28;20191;-51
2023/03/27 12:12:42;;;;;;;0.63;0.52;;;;;;;;;;5036271;28;20202;-51
2023/03/27 12:15:14;;;;;;;0.68;0.50;;;;;;;;;;5036972;28;20187;-51
2023/03/27 12:17:40;;;;;;;0.93;0.50;;;;;;;;;;5036254;28;20294;-51
2023/03/27 12:20:18;;;;;;;0.85;0.50;;;;;;;;;;5036093;28;20203;-51
2023/03/27 12:23:10;;;;;;;1.80;0.57;;;;;;;;;;5037104;28;20294;-51
2023/03/27 12:25:39;;;;;;;0.63;0.45;;;;;;;;;;5039783;28;20186;-51
2023/03/27 12:28:05;;;;;;;0.50;0.50;;;;;;;;;;5028985;28;20500;-51
2023/03/27 12:30:31;;;;;;;1.20;0.68;;;;;;;;;;5021228;28;20181;-51
2023/03/27 12:33:15;;;;;;;0.47;0.47;;;;;;;;;;5052312;28;20629;-51
2023/03/27 12:35:43;;;;;;;0.30;0.30;;;;;;;;;;5038002;28;20211;-51
2023/03/27 12:38:21;;;;;;;1.17;0.43;;;;;;;;;;5040982;28;20191;-51
2023/03/27 12:40:49;;;;;;;0.52;0.50;;;;;;;;;;5040772;28;20171;-50
2023/03/27 12:43:20;;;;;;;1.27;0.60;;;;;;;;;;5045384;28;20214;-50
2023/03/27 12:46:05;;;;;;;0.50;0.50;;;;;;;;;;5033413;28;20204;-51
2023/03/27 12:48:31;;;;;;;0.77;0.45;;;;;;;;;;5035659;28;20427;-50
2023/03/27 12:50:57;;;;;;;1.35;0.80;;;;;;;;;;5031568;28;20189;-51
2023/03/27 12:53:26;;;;;;;0.90;0.60;;;;;;;;;;5046952;28;20190;-51
2023/03/27 12:56:11;;;;;;;0.43;0.43;;;;;;;;;;5038022;28;20244;-50
2023/03/27 12:58:37;;;;;;;0.55;0.55;;;;;;;;;;5030081;28;20175;-51
2023/03/27 13:01:06;;;;;;;0.75;0.50;;;;;;;;;;5046540;28;20238;-51
2023/03/27 13:03:48;;;;;;;0.57;0.40;;;;;;;;;;5038921;28;20266;-51
2023/03/27 13:06:33;;;;;;;0.50;0.50;;;;;;;;;;5029825;28;20191;-51
2023/03/27 13:09:22;;;;;;;0.68;0.50;;;;;;;;;;5034630;28;20175;-51
2023/03/27 13:12:10;;;;;;;1.08;0.50;;;;;;;;;;5052298;28;20240;-50
2023/03/27 13:14:43;;;;;;;0.77;0.50;;;;;;;;;;5031459;28;20212;-51
2023/03/27 13:17:24;;;;;;;0.50;0.50;;;;;;;;;;5041169;28;20549;-51
2023/03/27 13:20:07;;;;;;;0.60;0.57;;;;;;;;;;5041444;28;20309;-51
2023/03/27 13:22:36;;;;;;;0.57;0.38;;;;;;;;;;5045111;28;20290;-51
2023/03/27 13:25:24;;;;;;;1.48;0.60;;;;;;;;;;5045158;28;20194;-51
2023/03/27 13:28:12;;;;;;;0.90;0.60;;;;;;;;;;5033098;28;20183;-51
2023/03/27 13:30:43;;;;;;;0.82;0.47;;;;;;;;;;5025235;28;20469;-51
2023/03/27 13:33:13;;;;;;;0.52;0.52;;;;;;;;;;5040469;28;20455;-51
2023/03/27 13:35:40;;;;;;;0.50;0.50;;;;;;;;;;5034710;28;20180;-51
2023/03/27 13:38:09;;;;;;;1.95;0.60;;;;;;;;;;5034338;28;20279;-51
2023/03/27 13:40:43;;;;;;;0.65;0.60;;;;;;;;;;5046618;28;20212;-51
2023/03/27 13:43:11;;;;;;;0.32;0.32;;;;;;;;;;5041135;28;20443;-51
2023/03/27 13:45:57;;;;;;;0.47;0.30;;;;;;;;;;5033049;28;20212;-51
2023/03/27 13:48:24;;;;;;;0.90;0.50;;;;;;;;;;5041704;28;20624;-51
2023/03/27 13:50:53;;;;;;;0.50;0.50;;;;;;;;;;5037654;28;20177;-51
2023/03/27 13:53:22;;;;;;;0.88;0.65;;;;;;;;;;5040119;28;20237;-51
2023/03/27 13:56:20;;;;;;;1.05;0.50;;;;;;;;;;5033920;28;20264;-51
2023/03/27 13:59:05;;;;;;;0.43;0.43;;;;;;;;;;5030001;28;20203;-51
2023/03/27 14:01:56;;;;;;;0.50;0.50;;;;;;;;;;5023619;28;20211;-51
2023/03/27 14:04:26;;;;;;;0.40;0.40;;;;;;;;;;5029517;28;20459;-51
2023/03/27 14:07:11;;;;;;;1.00;0.60;;;;;;;;;;5029987;28;20176;-52
2023/03/27 14:09:51;;;;;;;1.45;0.60;;;;;;;;;;5028875;28;20175;-51
2023/03/27 14:12:20;;;;;;;0.93;0.43;;;;;;;;;;5042057;28;20210;-51
2023/03/27 14:14:49;;;;;;;0.68;0.60;;;;;;;;;;5032828;28;20199;-52
2023/03/27 14:17:21;;;;;;;0.93;0.40;;;;;;;;;;5038790;28;20246;-52
2023/03/27 14:20:12;;;;;;;3.03;0.70;;;;;;;;;;5034222;28;20560;-52
2023/03/27 14:22:37;;;;;;;1.52;0.60;;;;;;;;;;5030949;28;20460;-52
2023/03/27 14:25:08;;;;;;;1.02;0.75;;;;;;;;;;5029497;28;20190;-52
2023/03/27 14:27:35;;;;;;;2.75;0.73;;;;;;;;;;5025568;28;20246;-52
2023/03/27 14:30:06;;;;;;;1.35;0.60;;;;;;;;;;5029024;28;20186;-52
2023/03/27 14:32:32;;;;;;;0.50;0.50;;;;;;;;;;5045934;28;20195;-52
2023/03/27 14:35:03;;;;;;;1.73;0.70;;;;;;;;;;5032980;28;20271;-52
2023/03/27 14:37:34;;;;;;;1.67;0.68;;;;;;;;;;5044784;28;20486;-52
2023/03/27 14:40:01;;;;;;;2.15;0.70;;;;;;;;;;5049039;28;20257;-52
2023/03/27 14:42:28;;;;;;;2.20;0.75;;;;;;;;;;5049599;28;20555;-52
2023/03/27 14:45:19;;;;;;;1.15;0.60;;;;;;;;;;5038326;28;20183;-52
2023/03/27 14:47:47;;;;;;;0.75;0.50;;;;;;;;;;5048209;28;20232;-52
2023/03/27 14:50:14;;;;;;;2.00;0.50;;;;;;;;;;5026993;28;20287;-52
2023/03/27 14:52:40;;;;;;;2.95;0.60;;;;;;;;;;5035541;28;20557;-52
2023/03/27 14:55:07;;;;;;;1.13;0.50;;;;;;;;;;5047572;28;20207;-52
2023/03/27 14:57:33;;;;;;;3.33;0.80;;;;;;;;;;5039691;28;20188;-52
2023/03/27 14:59:59;;;;;;;1.65;0.60;;;;;;;;;;5030289;28;20182;-52